createdAt,value
2018-09-08T00:00:36.660Z,99.90
2018-09-08T00:03:07.368Z,99.90
2018-09-08T00:10:36.127Z,99.90
2018-09-08T00:15:40.968Z,99.90
2018-09-08T00:23:25.803Z,99.90
2018-09-08T00:26:01.148Z,99.90
2018-09-08T00:33:33.491Z,99.90
2018-09-08T00:43:31.762Z,99.90
2018-09-08T01:03:28.414Z,99.90
2018-09-08T01:08:27.811Z,99.90
2018-09-08T01:13:27.202Z,99.90
2018-09-08T01:23:25.440Z,99.90
2018-09-08T01:30:54.844Z,99.90
2018-09-08T01:40:53.113Z,99.90
2018-09-08T01:43:23.065Z,99.90
2018-09-08T01:55:50.699Z,99.90
2018-09-08T01:58:22.676Z,99.90
2018-09-08T02:00:52.645Z,99.90
2018-09-08T02:03:22.694Z,99.90
2018-09-08T02:08:22.050Z,99.90
2018-09-08T02:10:51.975Z,99.90
2018-09-08T02:13:22.188Z,99.90
2018-09-08T02:15:52.191Z,99.90
2018-09-08T02:18:22.246Z,99.90
2018-09-08T02:23:21.582Z,99.90
2018-09-08T02:25:51.552Z,99.90
2018-09-08T02:28:21.492Z,99.90
2018-09-08T02:30:51.464Z,99.90
2018-09-08T02:40:49.586Z,99.90
2018-09-08T02:48:18.340Z,99.90
2018-09-08T03:03:12.604Z,99.90
2018-09-08T03:30:30.875Z,99.90
2018-09-08T03:32:59.649Z,99.90
2018-09-08T03:40:26.052Z,99.90
2018-09-08T03:45:23.659Z,99.90
2018-09-08T03:50:21.283Z,99.90
2018-09-08T03:57:47.680Z,99.90
2018-09-08T04:02:46.590Z,99.90
2018-09-08T04:05:16.592Z,99.90
2018-09-08T04:07:46.547Z,99.90
2018-09-08T04:10:16.549Z,99.90
2018-09-08T04:22:45.328Z,99.90
2018-09-08T04:27:44.707Z,99.90
2018-09-08T04:30:18.755Z,99.90
2018-09-08T04:35:18.059Z,99.90
2018-09-08T04:37:48.335Z,99.90
2018-09-08T04:40:18.315Z,99.90
2018-09-08T04:45:17.701Z,99.90
2018-09-08T04:47:47.653Z,99.90
2018-09-08T04:50:17.615Z,99.90
2018-09-08T04:57:46.349Z,99.90
2018-09-08T05:00:16.296Z,99.90
2018-09-08T05:10:14.590Z,99.90
2018-09-08T05:15:14.029Z,99.90
2018-09-08T05:22:44.488Z,99.90
2018-09-08T05:30:13.324Z,99.90
2018-09-08T05:32:43.325Z,99.90
2018-09-08T05:40:12.117Z,99.90
2018-09-08T05:42:42.080Z,99.90
2018-09-08T05:45:12.086Z,99.90
2018-09-08T05:47:42.003Z,99.90
2018-09-08T05:55:11.710Z,99.90
2018-09-08T05:57:41.682Z,99.90
2018-09-08T06:05:10.635Z,99.90
2018-09-08T06:07:40.613Z,99.90
2018-09-08T06:15:09.451Z,99.90
2018-09-08T06:17:39.485Z,99.90
2018-09-08T06:25:08.357Z,99.90
2018-09-08T06:27:38.351Z,99.90
2018-09-08T06:55:03.909Z,99.90
2018-09-08T07:00:03.516Z,99.90
2018-09-08T07:02:33.573Z,99.90
2018-09-08T07:07:32.962Z,99.90
2018-09-08T07:15:01.729Z,99.90
2018-09-08T07:17:31.711Z,99.90
2018-09-08T07:20:01.663Z,99.90
2018-09-08T07:29:59.869Z,99.90
2018-09-08T07:32:29.904Z,99.90
2018-09-08T07:37:29.336Z,99.90
2018-09-08T07:42:28.874Z,99.90
2018-09-08T07:47:28.274Z,99.90
2018-09-08T07:49:58.312Z,99.90
2018-09-08T07:54:57.740Z,99.90
2018-09-08T07:59:57.168Z,99.90
2018-09-08T08:07:25.935Z,99.90
2018-09-08T08:09:55.989Z,99.90
2018-09-08T08:17:24.754Z,99.90
2018-09-08T08:22:26.090Z,99.90
2018-09-08T08:29:54.928Z,99.90
2018-09-08T08:32:24.907Z,99.90
2018-09-08T08:39:53.863Z,99.90
2018-09-08T08:42:23.912Z,99.90
2018-09-08T08:52:38.965Z,99.90
2018-09-08T08:57:37.717Z,99.90
2018-09-08T09:00:07.743Z,99.90
2018-09-08T09:02:37.685Z,99.90
2018-09-08T09:05:07.668Z,99.90
2018-09-08T09:07:37.885Z,99.90
2018-09-08T09:10:07.792Z,99.90
2018-09-08T09:12:37.790Z,99.90
2018-09-08T09:15:08.348Z,99.90
2018-09-08T09:17:37.947Z,99.90
2018-09-08T09:25:01.689Z,99.90
2018-09-08T09:27:33.903Z,99.90
2018-09-08T09:37:32.875Z,99.90
2018-09-08T09:40:03.423Z,99.90
2018-09-08T09:42:33.647Z,99.90
2018-09-08T09:45:03.635Z,99.90
2018-09-08T09:47:33.621Z,99.90
2018-09-08T09:50:06.663Z,99.90
2018-09-08T09:52:36.656Z,99.90
2018-09-08T09:55:07.246Z,99.90
2018-09-08T10:00:08.936Z,99.90
2018-09-08T10:02:40.807Z,99.90
2018-09-08T10:10:14.232Z,99.90
2018-09-08T10:12:44.261Z,99.90
2018-09-08T10:15:14.348Z,99.90
2018-09-08T10:17:45.090Z,99.90
2018-09-08T10:20:16.475Z,99.90
2018-09-08T10:22:46.462Z,99.90
2018-09-08T10:30:22.913Z,99.90
2018-09-08T10:40:21.095Z,99.90
2018-09-08T10:50:19.403Z,99.90
2018-09-08T10:57:48.542Z,99.90
2018-09-08T11:00:18.553Z,99.90
2018-09-08T11:02:48.833Z,99.90
2018-09-08T11:07:47.952Z,99.90
2018-09-08T11:12:47.399Z,99.90
2018-09-08T11:17:47.706Z,99.90
2018-09-08T11:20:17.672Z,99.90
2018-09-08T11:45:12.506Z,99.90
2018-09-08T11:50:11.926Z,99.90
2018-09-08T12:00:10.669Z,99.90
2018-09-08T12:30:04.381Z,99.90
2018-09-08T12:37:34.680Z,99.90
2018-09-08T12:40:04.730Z,99.90
2018-09-08T12:42:34.780Z,99.90
2018-09-08T12:47:34.245Z,99.90
2018-09-08T12:52:33.631Z,99.90
2018-09-08T12:57:33.004Z,99.90
2018-09-08T13:00:03.084Z,99.90
2018-09-08T13:02:33.252Z,99.90
2018-09-08T13:10:02.140Z,99.90
2018-09-08T13:17:31.104Z,99.90
2018-09-08T13:20:01.157Z,99.90
2018-09-08T13:25:00.578Z,99.90
2018-09-08T13:32:30.430Z,99.90
2018-09-08T13:37:29.806Z,99.90
2018-09-08T13:39:59.965Z,99.90
2018-09-08T13:42:29.984Z,99.90
2018-09-08T13:47:30.616Z,99.90
2018-09-08T13:50:00.606Z,99.90
2018-09-08T13:52:30.646Z,99.90
2018-09-08T14:09:57.710Z,99.90
2018-09-08T14:22:25.698Z,99.90
2018-09-08T14:24:55.681Z,99.90
2018-09-08T14:34:53.945Z,99.90
2018-09-08T14:39:53.385Z,99.90
2018-09-08T14:42:26.538Z,99.90
2018-09-08T14:47:26.289Z,97.30
2018-09-08T14:52:25.680Z,95.40
2018-09-08T14:57:25.065Z,95.30
2018-09-08T14:59:55.066Z,97.20
2018-09-08T15:02:25.095Z,97.20
2018-09-08T15:09:54.604Z,97.40
2018-09-08T15:12:24.657Z,98.40
2018-09-08T15:14:54.712Z,97.50
2018-09-08T15:29:52.057Z,99.10
2018-09-08T15:39:50.958Z,99.20
2018-09-08T15:42:20.929Z,99.30
2018-09-08T15:47:20.626Z,99.60
2018-09-08T15:52:23.576Z,99.90
2018-09-08T15:54:53.636Z,99.90
2018-09-08T15:57:23.664Z,99.90
2018-09-08T15:59:53.812Z,99.90
2018-09-08T16:02:23.888Z,99.70
2018-09-08T16:04:53.850Z,99.90
2018-09-08T16:12:22.660Z,99.90
2018-09-08T16:19:51.418Z,99.90
2018-09-08T16:27:21.517Z,99.90
2018-09-08T16:32:21.303Z,99.90
2018-09-08T16:42:19.965Z,99.90
2018-09-08T16:47:19.458Z,99.90
2018-09-08T16:57:17.865Z,99.90
2018-09-08T17:02:17.558Z,99.90
2018-09-08T17:07:17.037Z,99.90
2018-09-08T17:09:49.678Z,99.90
2018-09-08T17:12:19.864Z,99.90
2018-09-08T17:19:48.916Z,99.90
2018-09-08T17:29:47.818Z,99.90
2018-09-08T17:34:47.665Z,99.90
2018-09-08T17:39:47.760Z,99.90
2018-09-08T17:42:18.034Z,99.90
2018-09-08T17:52:16.452Z,99.90
2018-09-08T17:54:46.477Z,99.90
2018-09-08T18:02:15.540Z,99.90
2018-09-08T18:17:15.294Z,99.90
2018-09-08T18:27:13.710Z,99.90
2018-09-08T18:32:14.660Z,99.90
2018-09-08T18:42:13.241Z,99.90
2018-09-08T18:44:43.238Z,99.90
2018-09-08T18:47:13.486Z,99.90
2018-09-08T18:57:12.059Z,99.90
2018-09-08T18:59:42.390Z,99.90
2018-09-08T19:02:12.378Z,99.90
2018-09-08T19:04:42.359Z,99.90
2018-09-08T19:19:44.985Z,99.90
2018-09-08T19:22:14.953Z,99.90
2018-09-08T19:32:21.062Z,99.90
2018-09-08T19:37:26.018Z,99.90
2018-09-08T19:39:56.040Z,99.90
2018-09-08T19:52:35.059Z,99.90
2018-09-08T19:57:39.838Z,99.90
2018-09-08T20:00:09.849Z,99.90
2018-09-08T20:12:37.650Z,99.90
2018-09-08T20:15:10.356Z,99.90
2018-09-08T20:17:40.358Z,99.90
2018-09-08T20:20:10.375Z,99.90
2018-09-08T20:30:09.989Z,99.90
2018-09-08T20:35:09.595Z,99.90
2018-09-08T20:40:09.144Z,99.90
2018-09-08T20:45:08.736Z,99.90
2018-09-08T20:50:08.265Z,99.90
2018-09-08T21:05:08.590Z,99.90
2018-09-08T21:25:08.144Z,99.90
2018-09-08T21:30:07.608Z,99.90
2018-09-08T21:37:36.796Z,99.90
2018-09-08T21:40:06.778Z,99.90
2018-09-08T21:42:37.620Z,99.90
2018-09-08T21:47:37.049Z,99.90
2018-09-08T21:50:07.174Z,99.90
2018-09-08T21:55:06.623Z,99.90
2018-09-08T21:57:36.549Z,99.90
2018-09-08T22:00:07.961Z,99.90
2018-09-08T22:07:39.122Z,99.90
2018-09-08T22:10:09.304Z,99.90
2018-09-08T22:15:08.733Z,99.90
2018-09-08T22:17:38.737Z,99.90
2018-09-08T22:25:07.704Z,99.90
2018-09-08T22:30:07.123Z,99.90
2018-09-08T22:45:04.472Z,99.90
2018-09-08T22:47:34.444Z,99.90
2018-09-08T22:50:04.491Z,99.90
2018-09-08T22:52:34.460Z,99.90
2018-09-08T22:55:04.512Z,99.90
2018-09-08T23:00:03.989Z,99.90
2018-09-08T23:29:59.961Z,99.90
2018-09-08T23:34:59.461Z,99.90
2018-09-08T23:37:29.425Z,99.90
2018-09-08T23:39:59.411Z,99.90
2018-09-08T23:47:28.153Z,99.90
2018-09-08T23:49:58.147Z,99.90
2018-09-08T23:59:56.533Z,99.90
